createdAt,value
2023-05-28T00:01:33.672Z,2.75
2023-05-28T00:04:36.288Z,2.90
2023-05-28T00:07:40.538Z,3.37
2023-05-28T00:10:43.570Z,2.80
2023-05-28T00:13:45.952Z,2.58
2023-05-28T00:16:48.479Z,2.88
2023-05-28T00:19:51.008Z,3.38
2023-05-28T00:22:53.895Z,2.50
2023-05-28T00:25:56.388Z,2.90
2023-05-28T00:28:58.865Z,2.80
2023-05-28T00:32:01.239Z,2.70
2023-05-28T00:35:04.066Z,3.00
2023-05-28T00:38:06.450Z,2.90
2023-05-28T00:41:08.874Z,3.83
2023-05-28T00:44:11.273Z,2.72
2023-05-28T00:47:14.881Z,3.03
2023-05-28T00:50:18.265Z,2.92
2023-05-28T00:53:20.998Z,2.47
2023-05-28T00:56:27.742Z,2.90
2023-05-28T00:59:31.446Z,2.60
2023-05-28T01:02:33.853Z,3.03
2023-05-28T01:05:36.635Z,2.75
2023-05-28T01:08:39.653Z,3.60
2023-05-28T01:11:43.661Z,2.47
2023-05-28T01:14:49.350Z,2.90
2023-05-28T01:17:53.686Z,3.20
2023-05-28T01:20:56.581Z,2.45
2023-05-28T01:24:00.229Z,2.93
2023-05-28T01:27:03.542Z,2.40
2023-05-28T01:30:10.640Z,2.70
2023-05-28T01:33:13.925Z,3.10
2023-05-28T01:36:23.182Z,2.72
2023-05-28T01:39:28.714Z,2.97
2023-05-28T01:42:32.191Z,2.60
2023-05-28T01:45:34.759Z,2.58
2023-05-28T01:48:37.779Z,2.50
2023-05-28T01:51:40.134Z,2.60
2023-05-28T01:54:42.512Z,2.83
2023-05-28T01:57:44.971Z,2.87
2023-05-28T02:00:55.127Z,2.60
2023-05-28T02:03:58.459Z,3.05
2023-05-28T02:07:01.061Z,2.95
2023-05-28T02:10:04.085Z,2.70
2023-05-28T02:13:06.596Z,2.90
2023-05-28T02:16:09.303Z,3.08
2023-05-28T02:19:12.373Z,2.40
2023-05-28T02:22:14.748Z,2.78
2023-05-28T02:25:17.070Z,2.30
2023-05-28T02:28:19.418Z,3.00
2023-05-28T02:31:21.786Z,2.67
2023-05-28T02:34:24.169Z,2.70
2023-05-28T02:37:26.592Z,2.83
2023-05-28T02:40:28.899Z,2.60
2023-05-28T02:43:31.324Z,2.70
2023-05-28T02:46:33.865Z,2.65
2023-05-28T02:49:36.236Z,2.47
2023-05-28T02:52:38.560Z,2.50
2023-05-28T02:55:41.710Z,2.40
2023-05-28T02:58:44.060Z,2.60
2023-05-28T03:01:46.678Z,2.63
2023-05-28T03:04:50.099Z,3.08
2023-05-28T03:07:53.436Z,2.20
2023-05-28T03:10:55.860Z,3.27
2023-05-28T03:13:58.186Z,3.00
2023-05-28T03:17:01.069Z,3.13
2023-05-28T03:20:04.519Z,2.63
2023-05-28T03:23:06.922Z,2.47
2023-05-28T03:26:19.125Z,3.07
2023-05-28T03:29:21.407Z,3.63
2023-05-28T03:32:30.385Z,3.30
2023-05-28T03:35:32.763Z,2.70
2023-05-28T03:38:35.038Z,3.00
2023-05-28T03:41:38.066Z,2.20
2023-05-28T03:44:41.253Z,2.57
2023-05-28T03:47:44.325Z,2.50
2023-05-28T03:50:47.305Z,2.20
2023-05-28T03:53:49.730Z,3.10
2023-05-28T03:56:52.550Z,2.87
2023-05-28T03:59:58.032Z,2.60
2023-05-28T04:03:00.404Z,2.25
2023-05-28T04:06:03.899Z,2.80
2023-05-28T04:09:06.259Z,2.80
2023-05-28T04:12:09.863Z,2.60
2023-05-28T04:15:13.656Z,2.23
2023-05-28T04:18:16.179Z,2.10
2023-05-28T04:21:19.898Z,2.00
2023-05-28T04:24:22.263Z,3.15
2023-05-28T04:27:24.685Z,2.40
2023-05-28T04:30:28.933Z,2.50
2023-05-28T04:33:31.918Z,2.60
2023-05-28T04:36:37.974Z,2.40
2023-05-28T04:39:40.402Z,2.40
2023-05-28T04:42:44.239Z,2.63
2023-05-28T04:45:47.329Z,2.53
2023-05-28T04:48:50.144Z,2.40
2023-05-28T04:51:53.882Z,2.30
2023-05-28T04:54:57.604Z,2.30
2023-05-28T04:57:59.915Z,2.43
2023-05-28T05:01:03.746Z,2.53
2023-05-28T05:04:07.086Z,2.65
2023-05-28T05:07:09.622Z,2.20
2023-05-28T05:10:12.024Z,2.20
2023-05-28T05:13:14.357Z,2.27
2023-05-28T05:16:20.274Z,2.40
2023-05-28T05:19:22.595Z,1.80
2023-05-28T05:22:25.324Z,2.20
2023-05-28T05:25:27.685Z,2.45
2023-05-28T05:28:31.557Z,2.73
2023-05-28T05:31:36.591Z,2.60
2023-05-28T05:34:40.379Z,2.60
2023-05-28T05:38:01.257Z,2.50
2023-05-28T05:41:23.582Z,2.40
2023-05-28T05:44:30.542Z,2.27
2023-05-28T05:47:34.502Z,2.00
2023-05-28T05:50:51.033Z,2.40
2023-05-28T05:53:53.331Z,2.13
2023-05-28T05:56:55.730Z,2.20
2023-05-28T05:59:58.735Z,2.47
2023-05-28T06:03:02.474Z,2.27
2023-05-28T06:06:23.500Z,2.72
2023-05-28T06:09:44.753Z,2.47
2023-05-28T06:12:53.753Z,2.22
2023-05-28T06:15:56.128Z,2.47
2023-05-28T06:18:58.515Z,2.70
2023-05-28T06:22:00.849Z,2.60
2023-05-28T06:25:04.409Z,2.40
2023-05-28T06:28:07.519Z,2.50
2023-05-28T06:31:09.807Z,2.27
2023-05-28T06:34:12.099Z,2.50
2023-05-28T06:37:14.430Z,2.60
2023-05-28T06:40:17.746Z,2.30
2023-05-28T06:43:20.088Z,2.45
2023-05-28T06:46:45.264Z,2.53
2023-05-28T06:49:49.316Z,2.40
2023-05-28T06:52:51.672Z,2.40
2023-05-28T06:55:54.221Z,2.83
2023-05-28T06:59:14.886Z,2.42
2023-05-28T07:02:31.235Z,2.63
2023-05-28T07:05:48.488Z,2.67
2023-05-28T07:08:50.992Z,2.75
2023-05-28T07:11:53.368Z,2.83
2023-05-28T07:14:56.399Z,2.30
2023-05-28T07:17:58.883Z,2.53
2023-05-28T07:21:01.527Z,2.50
2023-05-28T07:24:11.179Z,2.45
2023-05-28T07:27:13.474Z,2.70
2023-05-28T07:30:15.909Z,2.72
2023-05-28T07:33:18.306Z,2.47
2023-05-28T07:36:21.857Z,2.60
2023-05-28T07:39:24.398Z,2.42
2023-05-28T07:42:27.076Z,3.15
2023-05-28T07:45:37.597Z,3.30
2023-05-28T07:48:40.943Z,2.90
2023-05-28T07:52:02.329Z,2.73
2023-05-28T07:55:08.584Z,2.70
2023-05-28T07:58:13.076Z,2.75
2023-05-28T08:01:16.271Z,2.50
2023-05-28T08:04:18.692Z,2.27
2023-05-28T08:07:21.129Z,2.43
2023-05-28T08:10:23.514Z,3.03
2023-05-28T08:13:26.458Z,2.80
2023-05-28T08:16:28.793Z,3.00
2023-05-28T08:23:35.950Z,3.70
2023-05-28T08:26:42.310Z,2.75
2023-05-28T08:29:44.919Z,2.75
2023-05-28T08:32:47.278Z,2.60
2023-05-28T08:35:50.289Z,2.73
2023-05-28T08:38:53.134Z,2.70
2023-05-28T08:41:56.886Z,3.15
2023-05-28T08:44:59.286Z,3.30
2023-05-28T08:48:08.045Z,2.25
2023-05-28T08:51:14.521Z,2.83
2023-05-28T08:54:19.562Z,3.07
2023-05-28T08:57:22.289Z,2.83
2023-05-28T09:00:33.122Z,2.60
2023-05-28T09:03:55.512Z,2.58
2023-05-28T09:07:07.025Z,2.87
2023-05-28T09:10:16.594Z,2.90
2023-05-28T09:13:21.770Z,2.97
2023-05-28T09:16:25.676Z,3.40
2023-05-28T09:19:36.187Z,2.65
2023-05-28T09:22:41.514Z,3.40
2023-05-28T09:26:01.678Z,3.10
2023-05-28T09:29:14.150Z,2.63
2023-05-28T09:32:22.040Z,3.05
2023-05-28T09:35:28.019Z,3.20
2023-05-28T09:38:40.847Z,3.17
2023-05-28T09:41:45.626Z,3.63
2023-05-28T09:44:48.989Z,3.20
2023-05-28T09:47:51.509Z,3.25
2023-05-28T09:50:54.257Z,3.03
2023-05-28T09:53:59.063Z,3.20
2023-05-28T09:57:04.078Z,3.30
2023-05-28T10:00:14.827Z,3.15
2023-05-28T10:03:45.522Z,3.35
2023-05-28T10:06:47.930Z,3.33
2023-05-28T10:09:51.752Z,2.90
2023-05-28T10:12:54.721Z,2.90
2023-05-28T10:15:57.489Z,3.40
2023-05-28T10:19:01.030Z,3.40
2023-05-28T10:22:03.761Z,3.17
2023-05-28T10:25:09.019Z,3.03
2023-05-28T10:28:15.688Z,3.00
2023-05-28T10:31:22.668Z,3.85
2023-05-28T10:34:31.189Z,4.05
2023-05-28T10:37:33.706Z,3.88
2023-05-28T10:40:36.457Z,2.97
2023-05-28T10:43:38.772Z,3.43
2023-05-28T10:46:41.611Z,2.95
2023-05-28T10:50:18.536Z,3.10
2023-05-28T10:53:21.906Z,3.30
2023-05-28T10:56:26.601Z,3.50
2023-05-28T10:59:47.293Z,3.13
2023-05-28T11:02:53.102Z,3.72
2023-05-28T11:05:55.688Z,2.78
2023-05-28T11:08:58.271Z,2.97
2023-05-28T11:12:02.902Z,3.33
2023-05-28T11:15:06.493Z,3.37
2023-05-28T11:18:09.164Z,2.92
2023-05-28T11:21:12.810Z,3.08
2023-05-28T11:24:15.122Z,3.30
2023-05-28T11:27:18.140Z,3.03
2023-05-28T11:30:20.849Z,3.10
2023-05-28T11:33:23.186Z,3.22
2023-05-28T11:36:25.909Z,2.88
2023-05-28T11:39:28.237Z,3.10
2023-05-28T11:42:34.397Z,3.43
2023-05-28T11:45:40.757Z,3.10
2023-05-28T11:48:43.153Z,3.17
2023-05-28T11:51:45.437Z,3.05
2023-05-28T11:54:50.166Z,2.85
2023-05-28T11:57:56.536Z,2.93
2023-05-28T12:00:58.916Z,3.20
2023-05-28T12:04:08.366Z,2.85
2023-05-28T12:07:12.533Z,3.95
2023-05-28T12:10:18.176Z,3.03
2023-05-28T12:13:20.737Z,3.20
2023-05-28T12:16:23.177Z,2.87
2023-05-28T12:19:33.060Z,2.70
2023-05-28T12:22:35.396Z,3.10
2023-05-28T12:25:47.219Z,3.42
2023-05-28T12:28:49.525Z,3.07
2023-05-28T12:31:59.346Z,3.27
2023-05-28T12:35:03.279Z,3.28
2023-05-28T12:38:06.057Z,3.20
2023-05-28T12:41:08.594Z,3.10
2023-05-28T12:44:10.916Z,2.80
2023-05-28T12:47:13.364Z,2.90
2023-05-28T12:50:15.782Z,2.70
2023-05-28T12:53:18.545Z,2.90
2023-05-28T12:56:20.889Z,3.17
2023-05-28T12:59:27.926Z,2.90
2023-05-28T13:02:30.312Z,3.43
2023-05-28T13:05:34.193Z,2.85
2023-05-28T13:08:36.633Z,3.20
2023-05-28T13:11:40.567Z,2.90
2023-05-28T13:14:42.876Z,3.20
2023-05-28T13:17:45.817Z,2.77
2023-05-28T13:20:48.216Z,3.20
2023-05-28T13:23:50.652Z,3.15
2023-05-28T13:26:52.942Z,2.90
2023-05-28T13:29:55.460Z,3.17
2023-05-28T13:32:57.927Z,2.80
2023-05-28T13:36:00.354Z,3.08
2023-05-28T13:39:02.745Z,2.97
2023-05-28T13:42:05.244Z,3.17
2023-05-28T13:45:08.636Z,3.10
2023-05-28T13:48:11.011Z,3.13
2023-05-28T13:51:13.344Z,3.00
2023-05-28T13:54:16.329Z,3.08
2023-05-28T13:57:21.276Z,3.00
2023-05-28T14:00:38.078Z,2.87
2023-05-28T14:03:46.496Z,3.27
2023-05-28T14:06:51.711Z,3.00
2023-05-28T14:09:54.040Z,3.25
2023-05-28T14:12:56.421Z,3.03
2023-05-28T14:16:01.942Z,3.00
2023-05-28T14:19:04.228Z,2.50
2023-05-28T14:22:06.504Z,3.03
2023-05-28T14:25:09.338Z,3.10
2023-05-28T14:28:12.603Z,2.78
2023-05-28T14:31:15.133Z,3.30
2023-05-28T14:34:17.470Z,3.23
2023-05-28T14:37:20.098Z,2.65
2023-05-28T14:40:22.484Z,2.78
2023-05-28T14:43:24.786Z,2.80
2023-05-28T14:46:27.329Z,3.70
2023-05-28T14:49:29.723Z,3.00
2023-05-28T14:52:32.206Z,3.08
2023-05-28T14:55:34.782Z,2.70
2023-05-28T14:58:37.345Z,3.20
2023-05-28T15:01:39.822Z,3.00
2023-05-28T15:04:45.258Z,2.90
2023-05-28T15:07:48.314Z,2.97
2023-05-28T15:10:50.707Z,2.90
2023-05-28T15:13:55.300Z,2.97
2023-05-28T15:16:58.751Z,2.93
2023-05-28T15:20:01.247Z,2.60
2023-05-28T15:23:03.698Z,3.17
2023-05-28T15:26:06.111Z,3.40
2023-05-28T15:29:08.631Z,3.10
2023-05-28T15:32:12.401Z,3.00
2023-05-28T15:35:15.606Z,3.13
2023-05-28T15:38:18.272Z,3.28
2023-05-28T15:41:21.347Z,2.72
2023-05-28T15:44:23.895Z,2.97
2023-05-28T15:47:26.464Z,3.00
2023-05-28T15:50:28.967Z,3.07
2023-05-28T15:53:32.823Z,3.17
2023-05-28T15:56:35.234Z,2.85
2023-05-28T15:59:43.134Z,2.50
2023-05-28T16:02:46.049Z,2.57
2023-05-28T16:05:48.793Z,2.37
2023-05-28T16:08:51.179Z,2.95
2023-05-28T16:11:56.312Z,2.42
2023-05-28T16:14:59.115Z,2.33
2023-05-28T16:18:04.625Z,2.67
2023-05-28T16:21:07.832Z,2.53
2023-05-28T16:24:10.318Z,2.22
2023-05-28T16:27:12.688Z,2.10
2023-05-28T16:30:17.082Z,2.78
2023-05-28T16:33:19.947Z,2.47
2023-05-28T16:36:23.056Z,3.10
2023-05-28T16:39:25.995Z,2.53
2023-05-28T16:42:28.567Z,2.75
2023-05-28T16:45:31.235Z,2.40
2023-05-28T16:48:34.743Z,1.83
2023-05-28T16:51:38.006Z,2.70
2023-05-28T16:54:41.964Z,2.58
2023-05-28T16:57:44.327Z,2.63
2023-05-28T17:00:46.783Z,2.60
2023-05-28T17:03:49.256Z,2.40
2023-05-28T17:06:57.774Z,2.60
2023-05-28T17:10:00.097Z,2.35
2023-05-28T17:13:02.458Z,2.40
2023-05-28T17:16:04.968Z,2.53
2023-05-28T17:19:07.397Z,2.97
2023-05-28T17:22:09.660Z,2.43
2023-05-28T17:25:12.063Z,2.80
2023-05-28T17:28:14.827Z,2.70
2023-05-28T17:31:17.138Z,2.63
2023-05-28T17:34:19.495Z,3.00
2023-05-28T17:37:22.277Z,2.67
2023-05-28T17:40:24.622Z,2.72
2023-05-28T17:43:28.801Z,3.40
2023-05-28T17:46:32.558Z,2.60
2023-05-28T17:49:37.185Z,3.20
2023-05-28T17:52:39.506Z,2.80
2023-05-28T17:55:41.800Z,3.20
2023-05-28T17:58:44.405Z,2.75
2023-05-28T18:01:47.166Z,2.88
2023-05-28T18:04:49.657Z,3.47
2023-05-28T18:07:52.022Z,2.80
2023-05-28T18:10:57.746Z,2.58
2023-05-28T18:14:00.464Z,2.55
2023-05-28T18:17:02.780Z,3.05
2023-05-28T18:20:07.203Z,3.33
2023-05-28T18:23:11.239Z,2.50
2023-05-28T18:26:13.765Z,3.00
2023-05-28T18:29:16.304Z,2.55
2023-05-28T18:32:18.617Z,2.60
2023-05-28T18:35:21.300Z,2.50
2023-05-28T18:38:23.611Z,2.80
2023-05-28T18:41:26.366Z,2.58
2023-05-28T18:44:28.784Z,3.30
2023-05-28T18:47:31.553Z,3.15
2023-05-28T18:50:34.156Z,3.37
2023-05-28T18:53:36.919Z,2.70
2023-05-28T18:56:39.716Z,3.75
2023-05-28T18:59:42.438Z,3.60
2023-05-28T19:02:45.097Z,3.30
2023-05-28T19:05:47.585Z,3.40
2023-05-28T19:08:50.056Z,3.53
2023-05-28T19:11:52.490Z,3.60
2023-05-28T19:14:56.675Z,3.70
2023-05-28T19:17:59.001Z,3.70
2023-05-28T19:21:01.630Z,3.77
2023-05-28T19:24:04.185Z,3.87
2023-05-28T19:27:08.289Z,4.45
2023-05-28T19:30:11.097Z,4.07
2023-05-28T19:33:13.475Z,4.20
2023-05-28T19:36:17.387Z,3.13
2023-05-28T19:39:19.783Z,3.90
2023-05-28T19:42:22.047Z,3.40
2023-05-28T19:45:24.393Z,3.00
2023-05-28T19:48:27.600Z,3.45
2023-05-28T19:51:29.903Z,3.23
2023-05-28T19:54:32.304Z,3.70
2023-05-28T19:57:34.619Z,3.38
2023-05-28T20:00:37.395Z,3.50
2023-05-28T20:03:39.724Z,3.25
2023-05-28T20:06:43.002Z,3.37
2023-05-28T20:09:46.241Z,3.07
2023-05-28T20:12:48.590Z,3.60
2023-05-28T20:15:53.414Z,3.47
2023-05-28T20:18:58.216Z,3.75
2023-05-28T20:22:02.196Z,3.80
2023-05-28T20:25:05.658Z,3.93
2023-05-28T20:28:07.999Z,3.30
2023-05-28T20:31:10.413Z,3.72
2023-05-28T20:34:14.828Z,4.35
2023-05-28T20:37:17.900Z,3.77
2023-05-28T20:40:20.267Z,3.90
2023-05-28T20:43:22.806Z,4.00
2023-05-28T20:46:25.163Z,4.25
2023-05-28T20:49:27.540Z,3.80
2023-05-28T20:52:29.840Z,4.00
2023-05-28T20:55:32.101Z,3.60
2023-05-28T20:58:34.912Z,3.60
2023-05-28T21:01:38.523Z,4.25
2023-05-28T21:04:40.999Z,4.10
2023-05-28T21:07:43.389Z,3.80
2023-05-28T21:10:46.891Z,3.90
2023-05-28T21:13:49.206Z,4.10
2023-05-28T21:16:51.941Z,3.60
2023-05-28T21:19:54.269Z,3.70
2023-05-28T21:22:56.562Z,4.00
2023-05-28T21:25:59.657Z,3.47
2023-05-28T21:29:01.975Z,3.60
2023-05-28T21:32:04.433Z,3.67
2023-05-28T21:35:07.368Z,3.85
2023-05-28T21:38:09.750Z,3.27
2023-05-28T21:41:12.087Z,3.60
2023-05-28T21:44:14.566Z,4.15
2023-05-28T21:47:16.834Z,3.97
2023-05-28T21:50:19.114Z,3.90
2023-05-28T21:53:21.654Z,3.77
2023-05-28T21:56:23.959Z,3.83
2023-05-28T21:59:26.389Z,3.60
2023-05-28T22:02:28.796Z,3.28
2023-05-28T22:05:31.276Z,3.55
2023-05-28T22:08:33.777Z,4.10
2023-05-28T22:11:36.331Z,4.10
2023-05-28T22:14:39.225Z,3.78
2023-05-28T22:17:45.994Z,3.70
2023-05-28T22:20:50.819Z,3.88
2023-05-28T22:23:53.168Z,4.20
2023-05-28T22:26:55.906Z,3.97
2023-05-28T22:29:58.264Z,4.13
2023-05-28T22:33:01.292Z,4.22
2023-05-28T22:36:03.921Z,4.05
2023-05-28T22:39:06.390Z,4.43
2023-05-28T22:42:09.592Z,4.23
2023-05-28T22:45:16.972Z,4.72
2023-05-28T22:48:20.594Z,4.47
2023-05-28T22:51:24.279Z,4.38
2023-05-28T22:54:26.870Z,5.07
2023-05-28T22:57:29.189Z,4.07
2023-05-28T23:00:31.596Z,4.53
2023-05-28T23:03:34.193Z,4.30
2023-05-28T23:06:40.393Z,4.43
2023-05-28T23:09:42.641Z,4.67
2023-05-28T23:12:45.071Z,4.20
2023-05-28T23:15:47.378Z,4.72
2023-05-28T23:18:51.167Z,4.20
2023-05-28T23:21:53.573Z,3.50
2023-05-28T23:24:56.392Z,4.33
2023-05-28T23:27:58.687Z,4.50
2023-05-28T23:31:01.116Z,4.78
2023-05-28T23:34:03.547Z,5.15
2023-05-28T23:37:06.383Z,4.25
2023-05-28T23:40:09.195Z,4.17
2023-05-28T23:43:11.635Z,3.70
2023-05-28T23:46:13.940Z,3.95
2023-05-28T23:49:18.467Z,3.75
2023-05-28T23:52:20.795Z,3.88
2023-05-28T23:55:23.395Z,4.13
2023-05-28T23:58:26.278Z,4.37
